Time;durP1;ratioP1;P1;durP2;ratioP2;P2;SDS_P1;SDS_P2;PMS_P1;PMS_P2;Temp;Humidity;BMP_temperature;BMP_pressure;BME280_temperature;BME280_humidity;BME280_pressure;Samples;Min_cycle;Max_cycle;Signal;HPM_P1;HPM_P2
2021/08/09 00:01:13;;;;;;;;;;;17.70;99.30;;;;;;4947785;29;19944;-82
2021/08/09 00:03:38;;;;;;;;;;;17.70;99.30;;;;;;4949523;28;19914;-82
2021/08/09 00:06:04;;;;;;;;;;;17.60;99.30;;;;;;4949244;29;19965;-82
2021/08/09 00:08:29;;;;;;;;;;;17.70;99.20;;;;;;4948116;28;19953;-82
2021/08/09 00:10:55;;;;;;;;;;;17.60;99.10;;;;;;4947513;28;19911;-82
2021/08/09 00:13:20;;;;;;;;;;;17.70;99.10;;;;;;4949548;28;19911;-82
2021/08/09 00:15:46;;;;;;;;;;;17.60;99.10;;;;;;4941416;28;19911;-82
2021/08/09 00:18:12;;;;;;;;;;;17.70;99.10;;;;;;4935167;28;20279;-82
2021/08/09 00:20:37;;;;;;;;;;;17.60;99.10;;;;;;4935562;28;19918;-82
2021/08/09 00:23:03;;;;;;;;;;;17.60;99.10;;;;;;4934975;29;19910;-82
2021/08/09 00:25:28;;;;;;;;;;;17.60;99.10;;;;;;4934981;28;19911;-82
2021/08/09 00:27:54;;;;;;;;;;;17.60;99.10;;;;;;4934911;28;20003;-82
2021/08/09 00:30:19;;;;;;;;;;;17.60;99.20;;;;;;4934301;28;19937;-82
2021/08/09 00:32:45;;;;;;;;;;;17.60;99.20;;;;;;4934901;28;19911;-82
2021/08/09 00:35:10;;;;;;;;;;;17.60;99.20;;;;;;4934866;29;19954;-82
2021/08/09 00:37:36;;;;;;;;;;;17.60;99.10;;;;;;4935039;28;19994;-83
2021/08/09 00:40:02;;;;;;;;;;;17.50;99.20;;;;;;4933833;28;19917;-82
2021/08/09 00:42:28;;;;;;;;;;;17.50;99.10;;;;;;4935939;29;19911;-82
2021/08/09 00:44:53;;;;;;;;;;;17.50;99.20;;;;;;4934923;29;20345;-82
2021/08/09 00:47:19;;;;;;;;;;;17.50;99.30;;;;;;4934612;28;20307;-82
2021/08/09 00:49:44;;;;;;;;;;;17.40;99.30;;;;;;4934131;29;19915;-83
2021/08/09 00:52:10;;;;;;;;;;;17.50;99.30;;;;;;4936041;29;19954;-83
2021/08/09 00:54:36;;;;;;;;;;;17.40;99.30;;;;;;4934887;29;20435;-82
2021/08/09 00:57:02;;;;;;;;;;;17.40;99.40;;;;;;4934563;28;19917;-82
2021/08/09 00:59:28;;;;;;;;;;;17.40;99.50;;;;;;4934128;28;20014;-82
2021/08/09 01:01:54;;;;;;;;;;;17.40;99.50;;;;;;4934486;28;19914;-82
2021/08/09 01:04:20;;;;;;;;;;;17.40;99.50;;;;;;4933978;28;20432;-82
2021/08/09 01:06:45;;;;;;;;;;;17.40;99.60;;;;;;4934451;29;20390;-82
2021/08/09 01:09:27;;;;;;;;;;;17.40;99.70;;;;;;4936867;29;19911;-83
2021/08/09 01:11:55;;;;;;;;;;;17.40;99.70;;;;;;4935874;29;20394;-83
2021/08/09 01:14:23;;;;;;;;;;;17.30;99.80;;;;;;4935827;28;19926;-83
2021/08/09 01:16:49;;;;;;;;;;;17.30;99.80;;;;;;4935297;28;19929;-83
2021/08/09 01:19:40;;;;;;;;;;;17.30;99.90;;;;;;4934915;29;20294;-83
2021/08/09 01:22:10;;;;;;;;;;;17.30;99.80;;;;;;4936476;29;19911;-83
2021/08/09 01:24:49;;;;;;;;;;;17.30;99.90;;;;;;4934732;28;19947;-83
2021/08/09 01:27:19;;;;;;;;;;;17.20;99.90;;;;;;4934213;28;19911;-82
2021/08/09 01:29:45;;;;;;;;;;;17.20;99.90;;;;;;4934052;29;19914;-83
2021/08/09 01:32:11;;;;;;;;;;;17.20;99.90;;;;;;4936132;29;19954;-84
2021/08/09 01:34:37;;;;;;;;;;;17.10;99.90;;;;;;4934632;29;19919;-83
2021/08/09 01:37:03;;;;;;;;;;;17.10;99.90;;;;;;4936256;29;19917;-83
2021/08/09 01:39:29;;;;;;;;;;;17.00;99.90;;;;;;4934472;29;19934;-83
2021/08/09 01:41:55;;;;;;;;;;;17.00;99.90;;;;;;4936473;28;20368;-83
2021/08/09 01:44:21;;;;;;;;;;;17.00;99.90;;;;;;4935202;29;19926;-82
2021/08/09 01:46:47;;;;;;;;;;;17.00;99.90;;;;;;4935800;29;19921;-83
2021/08/09 01:49:13;;;;;;;;;;;17.00;99.90;;;;;;4933506;29;19946;-83
2021/08/09 01:51:39;;;;;;;;;;;16.90;99.90;;;;;;4935377;29;19938;-83
2021/08/09 01:54:05;;;;;;;;;;;16.90;99.90;;;;;;4934387;29;19918;-83
2021/08/09 01:56:31;;;;;;;;;;;16.90;99.90;;;;;;4933877;28;19958;-83
2021/08/09 01:58:56;;;;;;;;;;;16.90;99.90;;;;;;4933391;28;19911;-82
2021/08/09 02:01:22;;;;;;;;;;;16.90;99.90;;;;;;4933664;28;19918;-83
2021/08/09 02:03:48;;;;;;;;;;;16.90;99.90;;;;;;4933854;28;19914;-83
2021/08/09 02:06:14;;;;;;;;;;;17.00;99.90;;;;;;4935009;29;19915;-83
2021/08/09 02:08:39;;;;;;;;;;;17.00;99.90;;;;;;4933320;29;19918;-83
2021/08/09 02:11:08;;;;;;;;;;;17.00;99.90;;;;;;4932650;29;20414;-83
2021/08/09 02:13:39;;;;;;;;;;;17.00;99.90;;;;;;4933372;28;19922;-83
2021/08/09 02:16:12;;;;;;;;;;;17.00;99.90;;;;;;4934481;28;19918;-83
2021/08/09 02:18:43;;;;;;;;;;;16.90;99.90;;;;;;4934719;29;19911;-83
2021/08/09 02:21:10;;;;;;;;;;;16.90;99.90;;;;;;4932496;28;19914;-83
2021/08/09 02:23:43;;;;;;;;;;;16.90;99.90;;;;;;4934568;29;19915;-84
2021/08/09 02:26:09;;;;;;;;;;;16.90;99.90;;;;;;4933717;28;20334;-83
2021/08/09 02:28:38;;;;;;;;;;;16.90;99.90;;;;;;4932165;28;19910;-83
2021/08/09 02:31:05;;;;;;;;;;;16.90;99.90;;;;;;4932185;28;19915;-84
2021/08/09 02:33:31;;;;;;;;;;;16.90;99.90;;;;;;4934139;29;20006;-83
2021/08/09 02:35:58;;;;;;;;;;;16.90;99.90;;;;;;4933381;29;19918;-83
2021/08/09 02:38:23;;;;;;;;;;;16.90;99.90;;;;;;4934238;29;19918;-83
2021/08/09 02:40:49;;;;;;;;;;;16.80;99.90;;;;;;4933933;29;19911;-83
2021/08/09 02:43:15;;;;;;;;;;;16.80;99.90;;;;;;4933114;29;19915;-82
2021/08/09 02:45:41;;;;;;;;;;;16.80;99.90;;;;;;4933240;28;19917;-83
2021/08/09 02:48:07;;;;;;;;;;;16.80;99.90;;;;;;4933326;28;19911;-83
2021/08/09 02:50:33;;;;;;;;;;;16.80;99.90;;;;;;4933931;29;20268;-83
2021/08/09 02:52:59;;;;;;;;;;;16.80;99.90;;;;;;4933418;29;19911;-83
2021/08/09 02:55:25;;;;;;;;;;;16.80;99.90;;;;;;4934152;29;20402;-83
2021/08/09 02:57:51;;;;;;;;;;;16.80;99.90;;;;;;4932953;28;19911;-82
2021/08/09 03:00:17;;;;;;;;;;;16.80;99.90;;;;;;4933567;29;20370;-83
2021/08/09 03:02:43;;;;;;;;;;;16.80;99.90;;;;;;4934316;29;19918;-83
2021/08/09 03:05:10;;;;;;;;;;;16.80;99.90;;;;;;4932827;29;19915;-83
2021/08/09 03:07:36;;;;;;;;;;;16.80;99.90;;;;;;4934575;29;19922;-83
2021/08/09 03:10:06;;;;;;;;;;;16.80;99.90;;;;;;4932410;28;19911;-83
2021/08/09 03:12:31;;;;;;;;;;;16.80;99.90;;;;;;4933235;28;20363;-83
2021/08/09 03:14:57;;;;;;;;;;;16.80;99.90;;;;;;4932519;28;19926;-83
2021/08/09 03:17:22;;;;;;;;;;;16.80;99.90;;;;;;4932168;28;19926;-82
2021/08/09 03:19:48;;;;;;;;;;;16.80;99.90;;;;;;4932006;29;19965;-83
2021/08/09 03:22:13;;;;;;;;;;;16.80;99.90;;;;;;4932883;28;19915;-83
2021/08/09 03:24:39;;;;;;;;;;;16.80;99.90;;;;;;4932421;28;19954;-83
2021/08/09 03:27:05;;;;;;;;;;;16.80;99.90;;;;;;4933587;29;19938;-83
2021/08/09 03:29:31;;;;;;;;;;;16.80;99.90;;;;;;4932130;29;19915;-83
2021/08/09 03:31:56;;;;;;;;;;;16.90;99.90;;;;;;4932496;28;19933;-83
2021/08/09 03:34:22;;;;;;;;;;;16.90;99.90;;;;;;4932343;28;19911;-82
2021/08/09 03:36:49;;;;;;;;;;;16.90;99.90;;;;;;4932464;29;19911;-83
2021/08/09 03:39:15;;;;;;;;;;;16.90;99.90;;;;;;4932882;29;19911;-82
2021/08/09 03:41:41;;;;;;;;;;;16.90;99.90;;;;;;4932010;29;19918;-83
2021/08/09 03:44:07;;;;;;;;;;;16.90;99.90;;;;;;4932259;28;20389;-82
2021/08/09 03:46:32;;;;;;;;;;;17.00;99.90;;;;;;4932035;28;19911;-83
2021/08/09 03:48:58;;;;;;;;;;;17.00;99.90;;;;;;4931725;28;19948;-82
2021/08/09 03:51:23;;;;;;;;;;;17.00;99.90;;;;;;4936166;29;20003;-82
2021/08/09 03:53:49;;;;;;;;;;;16.90;99.90;;;;;;4935722;28;19937;-83
2021/08/09 03:56:14;;;;;;;;;;;17.00;99.90;;;;;;4935619;28;19912;-82
2021/08/09 03:58:40;;;;;;;;;;;17.00;99.90;;;;;;4937134;29;20371;-83
2021/08/09 04:01:07;;;;;;;;;;;16.90;99.90;;;;;;4935188;29;20360;-83
2021/08/09 04:03:33;;;;;;;;;;;16.90;99.90;;;;;;4935748;28;19954;-82
2021/08/09 04:05:58;;;;;;;;;;;16.90;99.90;;;;;;4934962;28;19922;-83
2021/08/09 04:08:24;;;;;;;;;;;16.90;99.90;;;;;;4935834;28;19911;-83
2021/08/09 04:10:50;;;;;;;;;;;16.90;99.90;;;;;;4936358;29;19911;-83
2021/08/09 04:13:15;;;;;;;;;;;16.90;99.90;;;;;;4935628;29;19964;-83
2021/08/09 04:15:41;;;;;;;;;;;16.90;99.90;;;;;;4936570;28;19957;-83
2021/08/09 04:18:06;;;;;;;;;;;16.90;99.90;;;;;;4937065;29;19915;-82
2021/08/09 04:20:32;;;;;;;;;;;16.90;99.90;;;;;;4935363;29;19911;-83
2021/08/09 04:22:57;;;;;;;;;;;16.90;99.90;;;;;;4935573;28;20410;-83
2021/08/09 04:25:25;;;;;;;;;;;16.90;99.90;;;;;;4935308;28;19915;-82
2021/08/09 04:27:50;;;;;;;;;;;16.90;99.90;;;;;;4934963;28;19942;-83
2021/08/09 04:30:16;;;;;;;;;;;16.90;99.90;;;;;;4934645;28;19965;-82
2021/08/09 04:32:42;;;;;;;;;;;16.90;99.90;;;;;;4935777;29;20342;-83
2021/08/09 04:35:08;;;;;;;;;;;16.90;99.90;;;;;;4934830;29;20346;-83
2021/08/09 04:37:34;;;;;;;;;;;16.90;99.90;;;;;;4936221;28;19914;-83
2021/08/09 04:40:00;;;;;;;;;;;16.90;99.90;;;;;;4935729;28;20359;-83
2021/08/09 04:42:25;;;;;;;;;;;16.90;99.90;;;;;;4934675;28;19915;-83
2021/08/09 04:44:51;;;;;;;;;;;16.90;99.90;;;;;;4934649;28;20291;-83
2021/08/09 04:47:16;;;;;;;;;;;16.90;99.90;;;;;;4934589;29;19911;-83
2021/08/09 04:49:42;;;;;;;;;;;16.90;99.90;;;;;;4935570;29;20425;-83
2021/08/09 04:52:08;;;;;;;;;;;16.90;99.90;;;;;;4934544;28;19960;-83
2021/08/09 04:54:34;;;;;;;;;;;16.90;99.90;;;;;;4936079;29;19915;-82
2021/08/09 04:56:59;;;;;;;;;;;16.90;99.90;;;;;;4934778;28;19911;-82
2021/08/09 04:59:25;;;;;;;;;;;16.90;99.90;;;;;;4935980;29;19911;-82
2021/08/09 05:01:53;;;;;;;;;;;16.90;99.90;;;;;;4934392;29;19911;-83
2021/08/09 05:04:19;;;;;;;;;;;17.00;99.90;;;;;;4934515;28;19965;-83
2021/08/09 05:06:44;;;;;;;;;;;17.00;99.90;;;;;;4934547;28;20427;-83
2021/08/09 05:09:10;;;;;;;;;;;17.00;99.90;;;;;;4935401;29;20363;-83
2021/08/09 05:11:36;;;;;;;;;;;17.00;99.90;;;;;;4935588;28;20268;-84
2021/08/09 05:14:01;;;;;;;;;;;16.90;99.90;;;;;;4935589;29;19911;-83
2021/08/09 05:16:27;;;;;;;;;;;17.00;99.90;;;;;;4934311;28;20379;-83
2021/08/09 05:18:56;;;;;;;;;;;17.00;99.90;;;;;;4934991;29;19910;-83
2021/08/09 05:21:21;;;;;;;;;;;17.00;99.90;;;;;;4933930;28;20357;-83
2021/08/09 05:23:47;;;;;;;;;;;17.00;99.90;;;;;;4934111;28;19973;-83
2021/08/09 05:26:12;;;;;;;;;;;17.00;99.90;;;;;;4934083;28;19961;-83
2021/08/09 05:28:38;;;;;;;;;;;17.00;99.90;;;;;;4935453;29;19915;-83
2021/08/09 05:31:03;;;;;;;;;;;17.00;99.90;;;;;;4933921;29;20624;-82
2021/08/09 05:33:29;;;;;;;;;;;17.00;99.90;;;;;;4934093;28;20423;-83
2021/08/09 05:35:55;;;;;;;;;;;17.00;99.90;;;;;;4933911;28;19954;-83
2021/08/09 05:38:21;;;;;;;;;;;17.00;99.90;;;;;;4935271;29;19911;-82
2021/08/09 05:40:46;;;;;;;;;;;17.00;99.90;;;;;;4934754;29;19965;-83
2021/08/09 05:43:11;;;;;;;;;;;17.10;99.90;;;;;;4933579;29;19911;-82
2021/08/09 05:45:37;;;;;;;;;;;17.10;99.90;;;;;;4934051;29;19911;-83
2021/08/09 05:48:03;;;;;;;;;;;17.10;99.90;;;;;;4935040;29;19911;-83
2021/08/09 05:50:28;;;;;;;;;;;17.10;99.90;;;;;;4933246;29;20006;-82
2021/08/09 05:52:56;;;;;;;;;;;17.10;99.90;;;;;;4933560;28;19937;-82
2021/08/09 05:55:23;;;;;;;;;;;17.10;99.90;;;;;;4935038;29;20406;-83
2021/08/09 05:57:50;;;;;;;;;;;17.10;99.90;;;;;;4935345;28;19956;-83
2021/08/09 06:00:15;;;;;;;;;;;17.10;99.90;;;;;;4934225;28;19911;-83
2021/08/09 06:02:44;;;;;;;;;;;17.20;99.90;;;;;;4933518;29;19918;-82
2021/08/09 06:05:10;;;;;;;;;;;17.10;99.90;;;;;;4934669;29;20017;-82
2021/08/09 06:07:36;;;;;;;;;;;17.20;99.90;;;;;;4934938;28;20391;-83
2021/08/09 06:10:02;;;;;;;;;;;17.10;99.90;;;;;;4932861;29;19953;-83
2021/08/09 06:12:27;;;;;;;;;;;17.10;99.90;;;;;;4934791;29;19911;-82
2021/08/09 06:14:53;;;;;;;;;;;17.10;99.90;;;;;;4934312;29;19910;-82
2021/08/09 06:17:19;;;;;;;;;;;17.10;99.90;;;;;;4933777;28;20324;-82
2021/08/09 06:19:44;;;;;;;;;;;17.10;99.90;;;;;;4933200;28;19934;-83
2021/08/09 06:22:10;;;;;;;;;;;17.10;99.90;;;;;;4934667;29;20295;-82
2021/08/09 06:24:35;;;;;;;;;;;17.10;99.90;;;;;;4934552;29;20264;-82
2021/08/09 06:27:01;;;;;;;;;;;17.10;99.90;;;;;;4933017;29;19915;-82
2021/08/09 06:29:26;;;;;;;;;;;17.10;99.90;;;;;;4932646;29;19911;-83
2021/08/09 06:31:52;;;;;;;;;;;17.10;99.90;;;;;;4934105;29;19993;-82
2021/08/09 06:34:17;;;;;;;;;;;17.10;99.90;;;;;;4934556;29;20005;-82
2021/08/09 06:36:43;;;;;;;;;;;17.10;99.90;;;;;;4933035;29;20116;-82
2021/08/09 06:39:11;;;;;;;;;;;17.10;99.90;;;;;;4932400;28;19911;-82
2021/08/09 06:41:37;;;;;;;;;;;17.10;99.90;;;;;;4932998;28;19914;-83
2021/08/09 06:44:02;;;;;;;;;;;17.10;99.90;;;;;;4934362;29;20367;-82
2021/08/09 06:46:28;;;;;;;;;;;17.10;99.90;;;;;;4932898;28;19955;-82
2021/08/09 06:48:53;;;;;;;;;;;17.10;99.90;;;;;;4932696;28;20553;-82
2021/08/09 06:51:19;;;;;;;;;;;17.10;99.90;;;;;;4933068;28;20002;-82
2021/08/09 06:53:44;;;;;;;;;;;17.10;99.90;;;;;;4934414;29;20009;-82
2021/08/09 06:56:14;;;;;;;;;;;17.10;99.90;;;;;;4934144;29;19911;-82
2021/08/09 06:58:40;;;;;;;;;;;17.10;99.90;;;;;;4934255;29;19911;-82
2021/08/09 07:01:05;;;;;;;;;;;17.20;99.90;;;;;;4933406;29;19917;-82
2021/08/09 07:03:31;;;;;;;;;;;17.20;99.90;;;;;;4932824;29;19965;-82
2021/08/09 07:05:56;;;;;;;;;;;17.20;99.90;;;;;;4933875;29;19915;-82
2021/08/09 07:08:22;;;;;;;;;;;17.20;99.90;;;;;;4933047;29;19965;-82
2021/08/09 07:10:50;;;;;;;;;;;17.30;99.90;;;;;;4932174;28;19934;-82
2021/08/09 07:13:16;;;;;;;;;;;17.30;99.90;;;;;;4933838;28;19915;-82
2021/08/09 07:15:41;;;;;;;;;;;17.30;99.90;;;;;;4934214;28;19965;-82
2021/08/09 07:18:07;;;;;;;;;;;17.40;99.90;;;;;;4933200;29;20279;-82
2021/08/09 07:20:32;;;;;;;;;;;17.40;99.90;;;;;;4932121;28;19960;-82
2021/08/09 07:22:58;;;;;;;;;;;17.40;99.90;;;;;;4934094;29;19918;-82
2021/08/09 07:25:23;;;;;;;;;;;17.50;99.90;;;;;;4934493;29;19925;-82
2021/08/09 07:27:49;;;;;;;;;;;17.60;99.90;;;;;;4935908;29;19911;-82
2021/08/09 07:30:15;;;;;;;;;;;17.60;99.90;;;;;;4935524;28;19915;-82
2021/08/09 07:32:40;;;;;;;;;;;17.70;99.90;;;;;;4937319;29;20391;-82
2021/08/09 07:35:06;;;;;;;;;;;17.70;99.90;;;;;;4938742;29;20406;-82
2021/08/09 07:37:32;;;;;;;;;;;17.80;99.90;;;;;;4936678;29;19915;-82
2021/08/09 07:39:57;;;;;;;;;;;17.90;99.90;;;;;;4936271;29;19911;-82
2021/08/09 07:42:24;;;;;;;;;;;17.90;99.90;;;;;;4935348;29;19915;-83
2021/08/09 07:44:50;;;;;;;;;;;18.00;99.90;;;;;;4935470;28;19922;-83
2021/08/09 07:47:16;;;;;;;;;;;18.10;99.90;;;;;;4936269;29;19911;-83
2021/08/09 07:49:41;;;;;;;;;;;18.10;99.90;;;;;;4934963;29;19911;-82
2021/08/09 07:52:07;;;;;;;;;;;18.20;99.80;;;;;;4935468;28;19917;-82
2021/08/09 07:54:32;;;;;;;;;;;18.20;99.80;;;;;;4936861;29;19911;-82
2021/08/09 07:57:01;;;;;;;;;;;18.30;99.60;;;;;;4935314;29;19918;-82
2021/08/09 07:59:27;;;;;;;;;;;18.30;99.60;;;;;;4936369;29;19911;-82
2021/08/09 08:01:52;;;;;;;;;;;18.30;99.10;;;;;;4935104;29;20049;-82
2021/08/09 08:04:18;;;;;;;;;;;18.30;98.80;;;;;;4937027;29;19915;-82
2021/08/09 08:06:43;;;;;;;;;;;18.40;98.00;;;;;;4937025;29;19946;-82
2021/08/09 08:09:09;;;;;;;;;;;18.40;98.00;;;;;;4934577;29;19915;-82
2021/08/09 08:11:35;;;;;;;;;;;18.50;98.30;;;;;;4934675;29;20338;-82
2021/08/09 08:14:00;;;;;;;;;;;18.50;98.30;;;;;;4936584;29;19954;-82
2021/08/09 08:16:26;;;;;;;;;;;18.60;97.90;;;;;;4935092;28;20009;-82
2021/08/09 08:18:51;;;;;;;;;;;18.60;97.70;;;;;;4935949;29;19911;-82
2021/08/09 08:21:17;;;;;;;;;;;18.60;97.50;;;;;;4936172;29;19958;-83
2021/08/09 08:23:42;;;;;;;;;;;18.70;97.60;;;;;;4934765;29;20414;-83
2021/08/09 08:26:08;;;;;;;;;;;18.80;97.10;;;;;;4936239;29;19910;-82
2021/08/09 08:28:36;;;;;;;;;;;18.70;97.10;;;;;;4934873;29;20391;-82
2021/08/09 08:31:01;;;;;;;;;;;18.80;96.70;;;;;;4934540;28;19918;-82
2021/08/09 08:33:27;;;;;;;;;;;18.80;96.30;;;;;;4934926;28;19911;-82
2021/08/09 08:35:52;;;;;;;;;;;18.90;96.30;;;;;;4934127;28;19922;-83
2021/08/09 08:38:27;;;;;;;;;;;18.90;96.20;;;;;;4936042;29;19918;-83
2021/08/09 08:40:53;;;;;;;;;;;19.00;95.50;;;;;;4934552;29;19910;-83
2021/08/09 08:43:20;;;;;;;;;;;19.00;95.70;;;;;;4936022;29;19911;-82
2021/08/09 08:45:47;;;;;;;;;;;19.00;95.90;;;;;;4935104;28;19917;-83
2021/08/09 08:48:12;;;;;;;;;;;19.10;95.50;;;;;;4936736;29;20382;-83
2021/08/09 08:50:38;;;;;;;;;;;19.10;95.20;;;;;;4935231;29;19910;-83
2021/08/09 08:53:03;;;;;;;;;;;19.10;95.30;;;;;;4936588;29;19982;-83
2021/08/09 08:55:29;;;;;;;;;;;19.10;95.50;;;;;;4935431;29;20386;-83
2021/08/09 08:57:54;;;;;;;;;;;19.10;94.90;;;;;;4936941;29;19918;-83
2021/08/09 09:00:20;;;;;;;;;;;19.20;95.00;;;;;;4936158;29;19918;-83
2021/08/09 09:02:45;;;;;;;;;;;19.20;95.30;;;;;;4937072;29;20334;-83
2021/08/09 09:05:16;;;;;;;;;;;19.20;95.20;;;;;;4936653;29;20291;-83
2021/08/09 09:07:42;;;;;;;;;;;19.20;95.30;;;;;;4936899;28;20000;-83
2021/08/09 09:10:22;;;;;;;;;;;19.20;95.20;;;;;;4934450;28;20367;-82
2021/08/09 09:13:06;;;;;;;;;;;19.20;95.30;;;;;;4934942;28;19914;-83
2021/08/09 09:15:51;;;;;;;;;;;19.30;95.30;;;;;;4934894;28;19950;-83
2021/08/09 09:18:17;;;;;;;;;;;19.40;95.30;;;;;;4934997;28;19918;-83
2021/08/09 09:20:43;;;;;;;;;;;19.40;95.40;;;;;;4933803;28;20005;-83
2021/08/09 09:23:18;;;;;;;;;;;19.30;95.20;;;;;;4935642;28;20475;-83
2021/08/09 09:25:44;;;;;;;;;;;19.30;95.10;;;;;;4934429;28;19962;-83
2021/08/09 09:28:24;;;;;;;;;;;19.40;94.90;;;;;;4934362;28;19958;-83
2021/08/09 09:30:50;;;;;;;;;;;19.50;94.70;;;;;;4935087;29;19917;-83
2021/08/09 09:33:15;;;;;;;;;;;19.50;94.50;;;;;;4935682;28;19956;-83
2021/08/09 09:35:41;;;;;;;;;;;19.50;94.30;;;;;;4935356;29;19915;-83
2021/08/09 09:38:06;;;;;;;;;;;19.60;93.70;;;;;;4933875;29;20467;-82
2021/08/09 09:40:39;;;;;;;;;;;19.60;93.60;;;;;;4933960;28;19918;-83
2021/08/09 09:43:13;;;;;;;;;;;19.70;93.60;;;;;;4934746;28;20005;-83
2021/08/09 09:45:48;;;;;;;;;;;19.70;93.20;;;;;;4934068;28;19915;-83
2021/08/09 09:48:14;;;;;;;;;;;19.70;93.20;;;;;;4933150;28;20279;-83
2021/08/09 09:50:41;;;;;;;;;;;19.70;93.10;;;;;;4933257;28;20433;-83
2021/08/09 09:53:16;;;;;;;;;;;19.70;93.30;;;;;;4933810;28;19957;-83
2021/08/09 09:55:42;;;;;;;;;;;19.70;93.20;;;;;;4935364;28;20273;-83
2021/08/09 09:58:08;;;;;;;;;;;19.80;93.60;;;;;;4934161;29;19916;-83
2021/08/09 10:00:34;;;;;;;;;;;19.80;93.80;;;;;;4933610;28;19915;-83
2021/08/09 10:02:59;;;;;;;;;;;19.90;93.70;;;;;;4935848;29;19910;-83
2021/08/09 10:05:25;;;;;;;;;;;19.90;93.70;;;;;;4935319;29;19984;-83
2021/08/09 10:07:52;;;;;;;;;;;19.90;93.90;;;;;;4935146;29;19911;-83
2021/08/09 10:10:22;;;;;;;;;;;19.90;93.80;;;;;;4933355;29;19997;-83
2021/08/09 10:12:48;;;;;;;;;;;19.90;93.50;;;;;;4933637;28;19918;-81
2021/08/09 10:15:16;;;;;;;;;;;19.90;93.40;;;;;;4933758;28;19915;-83
2021/08/09 10:17:42;;;;;;;;;;;20.00;92.90;;;;;;4934325;28;20299;-83
2021/08/09 10:20:09;;;;;;;;;;;19.90;92.80;;;;;;4933238;29;19917;-83
2021/08/09 10:22:34;;;;;;;;;;;19.90;93.10;;;;;;4933343;28;19938;-83
2021/08/09 10:25:01;;;;;;;;;;;19.90;93.30;;;;;;4933536;28;20379;-82
2021/08/09 10:27:45;;;;;;;;;;;19.90;93.20;;;;;;4935276;29;19917;-83
2021/08/09 10:30:11;;;;;;;;;;;20.00;93.10;;;;;;4932726;28;19961;-83
2021/08/09 10:32:43;;;;;;;;;;;20.00;92.60;;;;;;4933231;28;20001;-83
2021/08/09 10:35:29;;;;;;;;;;;20.10;92.10;;;;;;4933718;28;19910;-83
2021/08/09 10:38:10;;;;;;;;;;;20.20;91.50;;;;;;4983123;28;20326;-83
2021/08/09 10:40:35;;;;;;;;;;;20.30;91.50;;;;;;4932538;28;19961;-82
2021/08/09 10:43:01;;;;;;;;;;;20.30;90.90;;;;;;4934269;29;19911;-83
2021/08/09 10:45:40;;;;;;;;;;;20.40;90.30;;;;;;4932770;29;19919;-83
2021/08/09 10:48:06;;;;;;;;;;;20.50;90.50;;;;;;4934583;28;20326;-83
2021/08/09 10:50:32;;;;;;;;;;;20.50;90.20;;;;;;4932553;29;19961;-83
2021/08/09 10:52:58;;;;;;;;;;;20.50;89.20;;;;;;4934076;29;19919;-83
2021/08/09 10:55:29;;;;;;;;;;;20.60;89.40;;;;;;4933384;29;19918;-83
2021/08/09 10:57:55;;;;;;;;;;;20.60;88.80;;;;;;4934255;29;20284;-83
2021/08/09 11:00:39;;;;;;;;;;;20.70;88.90;;;;;;4932460;29;19918;-83
2021/08/09 11:03:05;;;;;;;;;;;20.70;88.40;;;;;;4934235;29;20379;-83
2021/08/09 11:05:30;;;;;;;;;;;20.70;88.40;;;;;;4933858;28;19965;-82
2021/08/09 11:08:15;;;;;;;;;;;20.60;88.80;;;;;;4934110;29;19911;-83
2021/08/09 11:10:56;;;;;;;;;;;20.60;87.50;;;;;;4932748;28;19911;-83
2021/08/09 11:13:22;;;;;;;;;;;20.60;87.30;;;;;;4934463;29;19973;-83
2021/08/09 11:15:56;;;;;;;;;;;20.60;86.00;;;;;;4932970;28;19917;-83
2021/08/09 11:18:23;;;;;;;;;;;20.70;86.10;;;;;;4933993;28;19937;-83
2021/08/09 11:20:59;;;;;;;;;;;20.70;86.20;;;;;;4932230;28;19911;-83
2021/08/09 11:23:25;;;;;;;;;;;20.70;85.30;;;;;;4932912;29;19957;-83
2021/08/09 11:25:50;;;;;;;;;;;20.70;85.50;;;;;;4933280;28;19911;-83
2021/08/09 11:28:17;;;;;;;;;;;20.70;86.80;;;;;;4934073;29;19911;-83
2021/08/09 11:30:45;;;;;;;;;;;20.70;86.60;;;;;;4932300;28;19911;-83
2021/08/09 11:33:21;;;;;;;;;;;20.70;86.90;;;;;;4933829;29;19911;-83
2021/08/09 11:35:47;;;;;;;;;;;20.80;87.00;;;;;;4932659;28;20001;-83
2021/08/09 11:38:13;;;;;;;;;;;20.80;85.50;;;;;;4932543;28;19965;-82
2021/08/09 11:40:40;;;;;;;;;;;20.80;85.80;;;;;;4933449;29;19957;-82
2021/08/09 11:43:06;;;;;;;;;;;20.80;87.10;;;;;;4931947;28;19911;-83
2021/08/09 11:45:31;;;;;;;;;;;20.80;87.20;;;;;;4932232;28;19918;-83
2021/08/09 11:47:57;;;;;;;;;;;20.80;86.20;;;;;;4932374;28;19911;-83
2021/08/09 11:50:23;;;;;;;;;;;20.80;86.50;;;;;;4931970;28;19911;-83
2021/08/09 11:52:50;;;;;;;;;;;20.80;86.80;;;;;;4933835;29;20346;-83
2021/08/09 11:55:21;;;;;;;;;;;20.80;87.90;;;;;;4933658;28;19911;-83
2021/08/09 11:57:46;;;;;;;;;;;20.90;88.50;;;;;;4932396;28;19917;-83
2021/08/09 12:00:12;;;;;;;;;;;20.90;88.20;;;;;;4932919;29;19911;-83
2021/08/09 12:02:56;;;;;;;;;;;21.00;88.10;;;;;;4932067;29;19911;-83
2021/08/09 12:05:23;;;;;;;;;;;21.00;88.10;;;;;;4932571;28;20041;-83
2021/08/09 12:07:56;;;;;;;;;;;21.00;87.60;;;;;;4932107;28;19976;-83
2021/08/09 12:10:25;;;;;;;;;;;21.00;87.90;;;;;;4933600;29;19911;-83
2021/08/09 12:12:51;;;;;;;;;;;20.90;87.90;;;;;;4935288;28;19911;-83
2021/08/09 12:15:16;;;;;;;;;;;20.90;88.30;;;;;;4936480;29;19918;-83
2021/08/09 12:17:42;;;;;;;;;;;20.90;86.90;;;;;;4935512;28;20376;-83
2021/08/09 12:20:14;;;;;;;;;;;20.90;86.60;;;;;;4936942;29;19948;-83
2021/08/09 12:22:39;;;;;;;;;;;21.00;86.30;;;;;;4936715;28;19950;-83
2021/08/09 12:25:07;;;;;;;;;;;20.90;86.00;;;;;;4935656;29;20013;-83
2021/08/09 12:27:33;;;;;;;;;;;21.00;85.70;;;;;;4937070;28;19911;-83
2021/08/09 12:30:06;;;;;;;;;;;20.90;86.10;;;;;;4935172;28;19998;-83
2021/08/09 12:32:36;;;;;;;;;;;20.90;86.40;;;;;;4936014;28;19981;-83
2021/08/09 12:35:02;;;;;;;;;;;20.80;86.60;;;;;;4937315;29;19911;-83
2021/08/09 12:37:27;;;;;;;;;;;20.70;86.90;;;;;;4937220;29;19911;-83
2021/08/09 12:40:07;;;;;;;;;;;20.60;87.70;;;;;;4935579;29;19922;-83
2021/08/09 12:42:32;;;;;;;;;;;20.60;88.80;;;;;;4936158;29;20326;-83
2021/08/09 12:44:58;;;;;;;;;;;20.50;88.90;;;;;;4936974;28;19915;-83
2021/08/09 12:47:24;;;;;;;;;;;20.50;89.30;;;;;;4936101;28;19953;-83
2021/08/09 12:49:50;;;;;;;;;;;20.50;89.10;;;;;;4934905;28;19911;-83
2021/08/09 12:52:16;;;;;;;;;;;20.50;89.00;;;;;;4937417;29;20001;-83
2021/08/09 12:54:41;;;;;;;;;;;20.50;89.00;;;;;;4935815;28;20394;-83
2021/08/09 12:57:07;;;;;;;;;;;20.60;88.50;;;;;;4936377;29;20003;-83
2021/08/09 12:59:32;;;;;;;;;;;20.60;88.80;;;;;;4935266;29;19918;-83
2021/08/09 13:01:58;;;;;;;;;;;20.60;89.00;;;;;;4936358;29;20531;-83
2021/08/09 13:04:23;;;;;;;;;;;20.70;88.60;;;;;;4934967;28;20394;-82
2021/08/09 13:06:49;;;;;;;;;;;20.80;87.60;;;;;;4935126;28;19961;-82
2021/08/09 13:09:14;;;;;;;;;;;20.80;87.80;;;;;;4934481;28;19910;-83
2021/08/09 13:11:40;;;;;;;;;;;20.90;87.10;;;;;;4936394;28;19911;-83
2021/08/09 13:14:06;;;;;;;;;;;21.00;87.10;;;;;;4934663;29;19915;-83
2021/08/09 13:16:34;;;;;;;;;;;21.10;86.90;;;;;;4935118;28;19919;-83
2021/08/09 13:19:00;;;;;;;;;;;21.10;86.10;;;;;;4934754;28;19997;-83
2021/08/09 13:21:25;;;;;;;;;;;21.20;85.70;;;;;;4935126;28;19965;-83
2021/08/09 13:23:51;;;;;;;;;;;21.20;86.10;;;;;;4934972;28;19922;-83
2021/08/09 13:26:16;;;;;;;;;;;21.20;85.10;;;;;;4934598;29;19915;-83
2021/08/09 13:28:42;;;;;;;;;;;21.20;83.50;;;;;;4935906;29;20287;-82
2021/08/09 13:31:07;;;;;;;;;;;21.20;82.70;;;;;;4935087;29;19986;-83
2021/08/09 13:33:33;;;;;;;;;;;21.20;83.10;;;;;;4934415;29;19911;-83
2021/08/09 13:35:59;;;;;;;;;;;21.30;83.80;;;;;;4935902;29;19958;-83
2021/08/09 13:38:24;;;;;;;;;;;21.30;83.90;;;;;;4934055;29;20018;-83
2021/08/09 13:40:50;;;;;;;;;;;21.40;84.90;;;;;;4933278;29;19911;-83
2021/08/09 13:43:15;;;;;;;;;;;21.50;84.60;;;;;;4933802;28;19918;-83
2021/08/09 13:45:41;;;;;;;;;;;21.50;84.10;;;;;;4933735;28;19922;-83
2021/08/09 13:48:06;;;;;;;;;;;21.50;84.30;;;;;;4933786;28;19945;-83
2021/08/09 13:50:32;;;;;;;;;;;21.50;84.50;;;;;;4934642;28;19956;-83
2021/08/09 13:52:57;;;;;;;;;;;21.50;84.60;;;;;;4933926;29;19985;-83
2021/08/09 13:55:23;;;;;;;;;;;21.40;84.40;;;;;;4934238;28;20425;-83
2021/08/09 13:57:49;;;;;;;;;;;21.40;84.70;;;;;;4935449;29;19911;-83
2021/08/09 14:00:15;;;;;;;;;;;21.50;83.20;;;;;;4933856;28;19918;-83
2021/08/09 14:02:41;;;;;;;;;;;21.50;83.40;;;;;;4933643;28;19978;-83
2021/08/09 14:05:10;;;;;;;;;;;21.50;83.60;;;;;;4933765;28;19915;-83
2021/08/09 14:07:36;;;;;;;;;;;21.50;83.80;;;;;;4933428;28;19986;-83
2021/08/09 14:10:02;;;;;;;;;;;21.60;84.50;;;;;;4933373;29;19911;-83
2021/08/09 14:12:28;;;;;;;;;;;21.70;84.30;;;;;;4935548;28;20025;-83
2021/08/09 14:14:53;;;;;;;;;;;21.80;84.80;;;;;;4934944;29;19973;-83